createdAt,value
2023-04-22T00:00:00.137Z, 14.1
2023-04-22T00:02:00.101Z, 14.1
2023-04-22T00:04:00.395Z, 12.9
2023-04-22T00:06:00.383Z, 12.9
2023-04-22T00:08:00.092Z, 9.4
2023-04-22T00:10:00.133Z, 9.4
2023-04-22T00:12:00.113Z, 9.4
2023-04-22T00:14:00.093Z, 9.7
2023-04-22T00:16:00.252Z, 9.7
2023-04-22T00:18:00.164Z, 15.4
2023-04-22T00:20:00.132Z, 15.4
2023-04-22T00:22:00.063Z, 15.4
2023-04-22T00:24:00.103Z, 12.8
2023-04-22T00:26:00.053Z, 12.8
2023-04-22T00:28:00.069Z, 12.3
2023-04-22T00:30:00.083Z, 12.3
2023-04-22T00:32:00.038Z, 12.3
2023-04-22T00:34:00.037Z, 11.8
2023-04-22T00:36:00.064Z, 11.8
2023-04-22T00:38:00.036Z, 14.3
2023-04-22T00:40:00.062Z, 14.3
2023-04-22T00:42:00.035Z, 14.3
2023-04-22T00:44:00.050Z, 13.8
2023-04-22T00:46:00.032Z, 13.8
2023-04-22T00:48:00.152Z, 14.7
2023-04-22T00:50:00.109Z, 14.7
2023-04-22T00:52:00.109Z, 14.7
2023-04-22T00:54:00.143Z, 22.8
2023-04-22T00:56:00.109Z, 22.8
2023-04-22T00:58:00.120Z, 31.2
2023-04-22T01:00:00.215Z, 31.2
2023-04-22T01:02:00.134Z, 31.2
2023-04-22T01:04:00.302Z, 43.3
2023-04-22T01:06:00.150Z, 43.3
2023-04-22T01:08:00.119Z, 27.7
2023-04-22T01:10:00.153Z, 27.7
2023-04-22T01:12:00.103Z, 27.7
2023-04-22T01:14:00.134Z, 18.2
2023-04-22T01:16:00.114Z, 18.2
2023-04-22T01:18:00.212Z, 17.5
2023-04-22T01:20:00.079Z, 17.5
2023-04-22T01:22:00.069Z, 17.5
2023-04-22T01:24:00.085Z, 16.7
2023-04-22T01:26:00.045Z, 16.7
2023-04-22T01:28:00.052Z, 15.4
2023-04-22T01:30:00.059Z, 15.4
2023-04-22T01:32:00.102Z, 15.4
2023-04-22T01:34:00.053Z, 17.8
2023-04-22T01:36:00.054Z, 17.8
2023-04-22T01:38:00.053Z, 18.9
2023-04-22T01:40:00.050Z, 18.9
2023-04-22T01:42:00.049Z, 18.9
2023-04-22T01:44:00.027Z, 25.8
2023-04-22T01:46:00.085Z, 25.8
2023-04-22T01:48:00.108Z, 20.6
2023-04-22T01:50:00.151Z, 20.6
2023-04-22T01:52:00.130Z, 20.6
2023-04-22T01:54:00.124Z, 21.9
2023-04-22T01:56:00.140Z, 21.9
2023-04-22T01:58:00.146Z, 21.9
2023-04-22T02:00:00.170Z, 21.9
2023-04-22T02:02:00.621Z, 21.9
2023-04-22T02:04:00.126Z, 23.4
2023-04-22T02:06:00.142Z, 23.4
2023-04-22T02:08:00.140Z, 22.6
2023-04-22T02:10:00.164Z, 22.6
2023-04-22T02:12:00.132Z, 22.6
2023-04-22T02:14:00.130Z, 21.5
2023-04-22T02:16:00.214Z, 21.5
2023-04-22T02:18:00.222Z, 20.4
2023-04-22T02:20:00.132Z, 20.4
2023-04-22T02:22:00.043Z, 20.4
2023-04-22T02:24:00.067Z, 16.8
2023-04-22T02:26:00.051Z, 16.8
2023-04-22T02:28:00.049Z, 17.4
2023-04-22T02:30:00.068Z, 17.4
2023-04-22T02:32:00.076Z, 16.5
2023-04-22T02:34:00.049Z, 16.3
2023-04-22T02:36:00.062Z, 16.3
2023-04-22T02:38:00.054Z, 17.6
2023-04-22T02:40:00.053Z, 17.6
2023-04-22T02:42:00.066Z, 22.5
2023-04-22T02:44:00.045Z, 22.5
2023-04-22T02:46:00.046Z, 22.5
2023-04-22T02:48:00.089Z, 21.7
2023-04-22T02:50:00.120Z, 21.7
2023-04-22T02:52:00.085Z, 20.4
2023-04-22T02:54:00.119Z, 20.4
2023-04-22T02:56:00.096Z, 20.4
2023-04-22T02:58:00.116Z, 21.7
2023-04-22T03:00:00.123Z, 21.7
2023-04-22T03:02:00.127Z, 28.2
2023-04-22T03:04:00.513Z, 28.2
2023-04-22T03:06:00.160Z, 28.2
2023-04-22T03:08:00.129Z, 36.1
2023-04-22T03:10:00.144Z, 36.1
2023-04-22T03:12:00.131Z, 26.7
2023-04-22T03:14:00.124Z, 26.7
2023-04-22T03:16:00.154Z, 26.7
2023-04-22T03:18:00.253Z, 29.3
2023-04-22T03:20:00.064Z, 29.3
2023-04-22T03:22:00.057Z, 25.4
2023-04-22T03:24:00.061Z, 25.4
2023-04-22T03:26:00.048Z, 25.4
2023-04-22T03:28:00.055Z, 28.6
2023-04-22T03:30:00.059Z, 28.6
2023-04-22T03:32:00.114Z, 25.9
2023-04-22T03:34:00.040Z, 25.9
2023-04-22T03:36:00.048Z, 25.9
2023-04-22T03:38:00.038Z, 30.6
2023-04-22T03:40:00.053Z, 30.6
2023-04-22T03:42:00.061Z, 33.3
2023-04-22T03:44:01.840Z, 33.3
2023-04-22T03:46:00.121Z, 33.3
2023-04-22T03:48:00.052Z, 30.5
2023-04-22T03:50:00.135Z, 30.5
2023-04-22T03:52:00.113Z, 43.2
2023-04-22T03:54:00.123Z, 43.2
2023-04-22T03:56:00.160Z, 43.2
2023-04-22T03:58:00.108Z, 31.6
2023-04-22T04:00:00.132Z, 31.6
2023-04-22T04:02:00.121Z, 28.2
2023-04-22T04:04:00.283Z, 28.2
2023-04-22T04:06:00.359Z, 28.2
2023-04-22T04:08:00.112Z, 38.6
2023-04-22T04:10:00.141Z, 38.6
2023-04-22T04:12:00.129Z, 37
2023-04-22T04:14:00.114Z, 37
2023-04-22T04:16:00.365Z, 37
2023-04-22T04:18:00.210Z, 36.6
2023-04-22T04:20:00.090Z, 36.6
2023-04-22T04:22:01.710Z, 36.7
2023-04-22T04:24:00.063Z, 36.7
2023-04-22T04:26:00.043Z, 36.7
2023-04-22T04:28:00.058Z, 38.6
2023-04-22T04:30:00.058Z, 38.6
2023-04-22T04:32:00.045Z, 44.9
2023-04-22T04:34:00.037Z, 44.9
2023-04-22T04:36:00.034Z, 44.9
2023-04-22T04:38:00.044Z, 48
2023-04-22T04:40:00.045Z, 48
2023-04-22T04:42:00.043Z, 41.5
2023-04-22T04:44:00.032Z, 41.5
2023-04-22T04:46:00.014Z, 41.5
2023-04-22T04:48:00.095Z, 48
2023-04-22T04:50:00.138Z, 48
2023-04-22T04:52:00.138Z, 51
2023-04-22T04:54:00.121Z, 51
2023-04-22T04:56:00.137Z, 51
2023-04-22T04:58:00.119Z, 44.5
2023-04-22T05:00:00.108Z, 44.5
2023-04-22T05:02:00.174Z, 37.6
2023-04-22T05:04:00.338Z, 37.6
2023-04-22T05:06:00.117Z, 37.6
2023-04-22T05:08:00.138Z, 38.2
2023-04-22T05:10:00.122Z, 38.2
2023-04-22T05:12:00.134Z, 34.3
2023-04-22T05:14:00.145Z, 34.3
2023-04-22T05:16:00.185Z, 34.3
2023-04-22T05:18:00.192Z, 38.9
2023-04-22T05:20:05.100Z, 38.9
2023-04-22T05:22:00.140Z, 36.8
2023-04-22T05:24:00.069Z, 36.8
2023-04-22T05:26:00.065Z, 36.8
2023-04-22T05:28:00.068Z, 45.6
2023-04-22T05:30:00.111Z, 45.6
2023-04-22T05:32:00.097Z, 47.3
2023-04-22T05:34:00.041Z, 47.3
2023-04-22T05:36:00.068Z, 47.3
2023-04-22T05:38:00.044Z, 51.8
2023-04-22T05:40:00.048Z, 51.8
2023-04-22T05:42:00.060Z, 51.3
2023-04-22T05:44:00.061Z, 51.3
2023-04-22T05:46:00.073Z, 51.3
2023-04-22T05:48:00.088Z, 43.8
2023-04-22T05:50:00.153Z, 43.8
2023-04-22T05:52:00.161Z, 44.3
2023-04-22T05:54:00.135Z, 44.3
2023-04-22T05:56:00.159Z, 40.3
2023-04-22T05:58:00.133Z, 39
2023-04-22T06:00:00.186Z, 39
2023-04-22T06:02:00.124Z, 36.3
2023-04-22T06:04:00.420Z, 36.3
2023-04-22T06:06:00.343Z, 32.9
2023-04-22T06:08:00.121Z, 32.9
2023-04-22T06:10:05.144Z, 32.9
2023-04-22T06:12:00.132Z, 37.4
2023-04-22T06:14:00.129Z, 37.4
2023-04-22T06:16:00.231Z, 33.3
2023-04-22T06:18:00.195Z, 33.3
2023-04-22T06:20:00.093Z, 33.3
2023-04-22T06:22:00.099Z, 34.6
2023-04-22T06:24:00.099Z, 34.6
2023-04-22T06:26:00.044Z, 28.2
2023-04-22T06:28:00.065Z, 28.2
2023-04-22T06:30:00.046Z, 28.2
2023-04-22T06:32:00.041Z, 23.3
2023-04-22T06:34:00.048Z, 23.3
2023-04-22T06:36:00.061Z, 17.4
2023-04-22T06:38:00.053Z, 17.4
2023-04-22T06:40:00.082Z, 17.4
2023-04-22T06:42:00.122Z, 17.4
2023-04-22T06:44:00.073Z, 17.4
2023-04-22T06:46:00.049Z, 21
2023-04-22T06:48:00.203Z, 21
2023-04-22T06:50:00.143Z, 21
2023-04-22T06:52:00.106Z, 17.6
2023-04-22T06:54:00.135Z, 17.6
2023-04-22T06:56:00.114Z, 17.8
2023-04-22T06:58:00.125Z, 17.8
2023-04-22T07:00:00.109Z, 17.8
2023-04-22T07:02:00.097Z, 13.9
2023-04-22T07:04:00.141Z, 13.9
2023-04-22T07:06:00.114Z, 14.6
2023-04-22T07:08:00.111Z, 14.6
2023-04-22T07:10:00.126Z, 14.6
2023-04-22T07:12:00.105Z, 16.9
2023-04-22T07:14:00.118Z, 16.9
2023-04-22T07:16:00.145Z, 11
2023-04-22T07:18:00.185Z, 11
2023-04-22T07:20:00.093Z, 11
2023-04-22T07:22:00.090Z, 12.3
2023-04-22T07:24:00.094Z, 12.3
2023-04-22T07:26:00.067Z, 11.3
2023-04-22T07:28:00.059Z, 11.3
2023-04-22T07:30:00.096Z, 11.3
2023-04-22T07:32:00.099Z, 15.5
2023-04-22T07:34:00.041Z, 15.5
2023-04-22T07:36:00.106Z, 12.7
2023-04-22T07:38:00.045Z, 12.7
2023-04-22T07:40:00.052Z, 12.7
2023-04-22T07:42:00.085Z, 12.1
2023-04-22T07:44:00.057Z, 12.1
2023-04-22T07:46:00.097Z, 10.2
2023-04-22T07:48:00.084Z, 10.2
2023-04-22T07:50:00.093Z, 10.2
2023-04-22T07:52:00.081Z, 11.5
2023-04-22T07:54:00.096Z, 11.5
2023-04-22T07:56:02.038Z, 7
2023-04-22T07:58:00.111Z, 7
2023-04-22T08:00:00.139Z, 7
2023-04-22T08:02:00.150Z, 7.5
2023-04-22T08:04:00.411Z, 7.5
2023-04-22T08:06:00.166Z, 4.1
2023-04-22T08:08:00.142Z, 4.1
2023-04-22T08:10:00.100Z, 4.1
2023-04-22T08:12:00.099Z, 2.6
2023-04-22T08:14:00.155Z, 2.6
2023-04-22T08:16:00.147Z, 2.3
2023-04-22T08:18:00.159Z, 2.3
2023-04-22T08:20:00.072Z, 2.3
2023-04-22T08:22:00.067Z, 2.3
2023-04-22T08:24:00.069Z, 1.9
2023-04-22T08:26:00.057Z, 2.3
2023-04-22T08:28:00.074Z, 2.3
2023-04-22T08:30:00.117Z, 2.3
2023-04-22T08:32:00.052Z, 3
2023-04-22T08:34:00.078Z, 3
2023-04-22T08:36:00.048Z, 3.5
2023-04-22T08:38:00.040Z, 3.5
2023-04-22T08:40:00.086Z, 3.5
2023-04-22T08:42:00.107Z, 2.8
2023-04-22T08:44:00.058Z, 2.8
2023-04-22T08:46:00.043Z, 1.7
2023-04-22T08:48:00.103Z, 1.7
2023-04-22T08:50:00.149Z, 1.7
2023-04-22T08:52:00.119Z, 3.7
2023-04-22T08:54:00.127Z, 3.7
2023-04-22T08:56:00.121Z, 3.1
2023-04-22T08:58:00.147Z, 3.1
2023-04-22T09:00:00.206Z, 3.1
2023-04-22T09:02:00.161Z, 3.4
2023-04-22T09:04:00.241Z, 3.4
2023-04-22T09:06:00.156Z, 2.4
2023-04-22T09:08:00.138Z, 2.4
2023-04-22T09:10:00.170Z, 2.4
2023-04-22T09:12:00.127Z, 2.7
2023-04-22T09:14:00.123Z, 2.7
2023-04-22T09:16:00.228Z, 4.3
2023-04-22T09:18:00.153Z, 4.3
2023-04-22T09:20:00.067Z, 4.3
2023-04-22T09:22:00.065Z, 3.4
2023-04-22T09:24:00.079Z, 3.4
2023-04-22T09:26:00.074Z, 7.5
2023-04-22T09:28:00.065Z, 7.5
2023-04-22T09:30:00.088Z, 7.5
2023-04-22T09:32:00.103Z, 2.1
2023-04-22T09:34:00.070Z, 2.1
2023-04-22T09:36:00.082Z, 2
2023-04-22T09:38:00.105Z, 2
2023-04-22T09:40:00.065Z, 2
2023-04-22T09:42:00.064Z, 2.7
2023-04-22T09:44:00.052Z, 2.7
2023-04-22T09:46:00.137Z, 3.2
2023-04-22T09:48:00.096Z, 3.2
2023-04-22T09:50:00.112Z, 3.2
2023-04-22T09:52:00.115Z, 2.5
2023-04-22T09:54:00.153Z, 2.5
2023-04-22T09:56:00.137Z, 3.1
2023-04-22T09:58:00.127Z, 3.1
2023-04-22T10:00:00.159Z, 3.1
2023-04-22T10:02:00.150Z, 4.4
2023-04-22T10:04:00.172Z, 4.4
2023-04-22T10:06:00.122Z, 2.4
2023-04-22T10:08:00.204Z, 2.4
2023-04-22T10:10:00.104Z, 2.4
2023-04-22T10:12:00.150Z, 3.7
2023-04-22T10:14:00.127Z, 3.7
2023-04-22T10:16:00.126Z, 3.5
2023-04-22T10:18:00.167Z, 3.5
2023-04-22T10:20:00.030Z, 3.5
2023-04-22T10:22:00.017Z, 2.9
2023-04-22T10:24:00.059Z, 2.9
2023-04-22T10:25:59.986Z, 4.7
2023-04-22T10:28:00.034Z, 4.7
2023-04-22T10:30:00.051Z, 4.7
2023-04-22T10:32:00.023Z, 2.5
2023-04-22T10:34:00.034Z, 2.5
2023-04-22T10:36:00.059Z, 7.7
2023-04-22T10:37:59.998Z, 7.7
2023-04-22T10:39:59.995Z, 7.7
2023-04-22T10:42:00.013Z, 23.4
2023-04-22T10:44:00.004Z, 23.4
2023-04-22T10:46:00.086Z, 4.8
2023-04-22T10:48:00.016Z, 4.8
2023-04-22T10:50:00.218Z, 4.8
2023-04-22T10:52:00.136Z, 4.5
2023-04-22T10:54:00.122Z, 4.5
2023-04-22T10:56:00.122Z, 3.6
2023-04-22T10:58:00.129Z, 3.6
2023-04-22T11:00:00.132Z, 3.6
2023-04-22T11:02:00.185Z, 4
2023-04-22T11:04:00.192Z, 4
2023-04-22T11:06:00.143Z, 4.4
2023-04-22T11:08:00.132Z, 4.4
2023-04-22T11:10:00.166Z, 4.4
2023-04-22T11:12:00.128Z, 5.7
2023-04-22T11:14:00.137Z, 5.7
2023-04-22T11:16:00.191Z, 5.6
2023-04-22T11:18:00.138Z, 5.6
2023-04-22T11:20:00.093Z, 5.6
2023-04-22T11:22:00.079Z, 4.5
2023-04-22T11:24:00.082Z, 4.5
2023-04-22T11:26:00.060Z, 2.7
2023-04-22T11:28:00.053Z, 2.7
2023-04-22T11:30:00.068Z, 2.7
2023-04-22T11:32:00.056Z, 3.9
2023-04-22T11:34:00.062Z, 3.9
2023-04-22T11:36:00.062Z, 4
2023-04-22T11:38:00.057Z, 4
2023-04-22T11:40:17.308Z, 4
2023-04-22T11:42:00.058Z, 4.4
2023-04-22T11:44:00.055Z, 4.4
2023-04-22T11:46:00.152Z, 3.2
2023-04-22T11:48:00.131Z, 3.2
2023-04-22T11:50:00.165Z, 3.2
2023-04-22T11:52:00.132Z, 3.1
2023-04-22T11:54:00.141Z, 3.1
2023-04-22T11:56:00.138Z, 7.7
2023-04-22T11:58:00.113Z, 7.7
2023-04-22T12:00:00.164Z, 7.7
2023-04-22T12:02:00.149Z, 4.6
2023-04-22T12:04:00.299Z, 4.6
2023-04-22T12:06:00.163Z, 7.6
2023-04-22T12:08:00.129Z, 7.6
2023-04-22T12:10:00.153Z, 7.6
2023-04-22T12:12:00.128Z, 5.9
2023-04-22T12:14:00.136Z, 5.9
2023-04-22T12:16:00.122Z, 4
2023-04-22T12:18:00.257Z, 4
2023-04-22T12:20:00.098Z, 4
2023-04-22T12:22:00.100Z, 4.2
2023-04-22T12:24:00.129Z, 4.2
2023-04-22T12:26:00.064Z, 6.3
2023-04-22T12:28:00.040Z, 6.3
2023-04-22T12:30:00.060Z, 6.6
2023-04-22T12:32:00.041Z, 7.8
2023-04-22T12:34:00.060Z, 7.8
2023-04-22T12:36:00.064Z, 11.8
2023-04-22T12:38:00.071Z, 11.8
2023-04-22T12:40:00.096Z, 8.1
2023-04-22T12:42:00.096Z, 4.4
2023-04-22T12:44:00.079Z, 4.4
2023-04-22T12:46:00.156Z, 3.9
2023-04-22T12:48:00.153Z, 3.9
2023-04-22T12:50:00.133Z, 4.3
2023-04-22T12:52:00.146Z, 4.3
2023-04-22T12:54:00.127Z, 4.3
2023-04-22T12:56:00.091Z, 5.2
2023-04-22T12:58:00.134Z, 5.2
2023-04-22T13:00:00.166Z, 4
2023-04-22T13:02:00.156Z, 4
2023-04-22T13:04:00.254Z, 4
2023-04-22T13:06:00.156Z, 4.2
2023-04-22T13:08:07.322Z, 4.2
2023-04-22T13:10:00.139Z, 2.7
2023-04-22T13:12:00.130Z, 2.7
2023-04-22T13:14:00.106Z, 2.7
2023-04-22T13:16:00.166Z, 4.7
2023-04-22T13:18:00.159Z, 4.7
2023-04-22T13:20:00.099Z, 2.7
2023-04-22T13:22:00.057Z, 2.7
2023-04-22T13:24:00.080Z, 2.7
2023-04-22T13:26:00.057Z, 4
2023-04-22T13:28:00.070Z, 4
2023-04-22T13:30:00.049Z, 3.8
2023-04-22T13:32:00.061Z, 3.8
2023-04-22T13:34:00.043Z, 3.8
2023-04-22T13:36:00.049Z, 4.2
2023-04-22T13:38:00.072Z, 4.2
2023-04-22T13:40:00.063Z, 3.9
2023-04-22T13:42:00.058Z, 3.9
2023-04-22T13:44:00.034Z, 3.9
2023-04-22T13:46:00.070Z, 2.9
2023-04-22T13:48:00.078Z, 2.9
2023-04-22T13:50:00.166Z, 4.1
2023-04-22T13:52:00.118Z, 4.1
2023-04-22T13:54:00.188Z, 4.1
2023-04-22T13:56:00.142Z, 2.9
2023-04-22T13:58:00.124Z, 2.9
2023-04-22T14:00:00.216Z, 3.9
2023-04-22T14:02:00.134Z, 3.9
2023-04-22T14:04:00.262Z, 3.9
2023-04-22T14:06:00.137Z, 3.6
2023-04-22T14:08:00.137Z, 3.6
2023-04-22T14:10:00.158Z, 5.8
2023-04-22T14:12:00.142Z, 5.8
2023-04-22T14:14:00.102Z, 5.8
2023-04-22T14:16:00.138Z, 4.9
2023-04-22T14:18:00.189Z, 4.9
2023-04-22T14:20:00.120Z, 3.3
2023-04-22T14:22:00.075Z, 3.3
2023-04-22T14:24:00.075Z, 3.3
2023-04-22T14:26:00.066Z, 4.1
2023-04-22T14:28:00.047Z, 4.1
2023-04-22T14:30:00.044Z, 2.9
2023-04-22T14:32:00.067Z, 2.9
2023-04-22T14:34:00.040Z, 2.9
2023-04-22T14:36:00.076Z, 3.7
2023-04-22T14:38:00.054Z, 3.7
2023-04-22T14:40:00.091Z, 5.4
2023-04-22T14:42:00.061Z, 5.4
2023-04-22T14:44:00.064Z, 5.4
2023-04-22T14:46:00.112Z, 4.4
2023-04-22T14:48:00.123Z, 4.4
2023-04-22T14:50:00.138Z, 5
2023-04-22T14:52:00.126Z, 5
2023-04-22T14:54:00.130Z, 5
2023-04-22T14:56:00.123Z, 4
2023-04-22T14:58:00.082Z, 4
2023-04-22T15:00:00.122Z, 5
2023-04-22T15:02:00.249Z, 5
2023-04-22T15:04:00.271Z, 5
2023-04-22T15:06:00.124Z, 6.5
2023-04-22T15:08:00.110Z, 6.5
2023-04-22T15:10:00.131Z, 5.4
2023-04-22T15:12:00.113Z, 5.4
2023-04-22T15:14:00.120Z, 5.4
2023-04-22T15:16:00.159Z, 4.4
2023-04-22T15:18:00.137Z, 4.4
2023-04-22T15:20:00.098Z, 5.6
2023-04-22T15:22:00.076Z, 5.6
2023-04-22T15:24:00.066Z, 5.6
2023-04-22T15:26:00.098Z, 2.5
2023-04-22T15:28:00.075Z, 2.5
2023-04-22T15:30:00.119Z, 3
2023-04-22T15:32:00.076Z, 3
2023-04-22T15:34:00.037Z, 3
2023-04-22T15:36:00.089Z, 3.4
2023-04-22T15:38:00.049Z, 3.4
2023-04-22T15:40:00.098Z, 3.6
2023-04-22T15:42:00.069Z, 3.6
2023-04-22T15:44:00.070Z, 3.6
2023-04-22T15:46:00.044Z, 3.4
2023-04-22T15:48:00.120Z, 3.4
2023-04-22T15:50:00.145Z, 2.5
2023-04-22T15:52:00.118Z, 2.5
2023-04-22T15:54:00.140Z, 2.5
2023-04-22T15:56:00.150Z, 3.3
2023-04-22T15:58:00.121Z, 3.3
2023-04-22T16:00:10.109Z, 3.1
2023-04-22T16:02:00.232Z, 3.1
2023-04-22T16:04:00.207Z, 3.1
2023-04-22T16:06:00.116Z, 3.3
2023-04-22T16:08:00.137Z, 3.3
2023-04-22T16:10:00.196Z, 3.2
2023-04-22T16:12:00.127Z, 3.2
2023-04-22T16:14:00.134Z, 3.2
2023-04-22T16:16:00.165Z, 3.3
2023-04-22T16:18:00.220Z, 3.3
2023-04-22T16:20:00.170Z, 3.5
2023-04-22T16:22:00.076Z, 3.5
2023-04-22T16:24:00.103Z, 3.5
2023-04-22T16:26:00.035Z, 2.3
2023-04-22T16:28:00.056Z, 2.3
2023-04-22T16:30:00.140Z, 3.6
2023-04-22T16:32:00.053Z, 3.6
2023-04-22T16:34:00.044Z, 3.6
2023-04-22T16:36:00.078Z, 2
2023-04-22T16:38:00.073Z, 2
2023-04-22T16:40:00.078Z, 2.9
2023-04-22T16:42:00.137Z, 2.9
2023-04-22T16:44:00.071Z, 2.9
2023-04-22T16:46:00.118Z, 3
2023-04-22T16:48:00.129Z, 3
2023-04-22T16:50:00.111Z, 3.5
2023-04-22T16:52:00.166Z, 3.5
2023-04-22T16:54:00.134Z, 3.5
2023-04-22T16:56:00.118Z, 3
2023-04-22T16:58:00.137Z, 3
2023-04-22T17:00:00.165Z, 3.6
2023-04-22T17:02:00.160Z, 3.6
2023-04-22T17:04:00.253Z, 3.6
2023-04-22T17:06:00.134Z, 3.1
2023-04-22T17:08:00.148Z, 3.1
2023-04-22T17:10:00.178Z, 4.1
2023-04-22T17:12:00.145Z, 4.1
2023-04-22T17:14:00.129Z, 4.1
2023-04-22T17:16:00.148Z, 2.6
2023-04-22T17:18:00.195Z, 2.6
2023-04-22T17:20:00.076Z, 4.1
2023-04-22T17:22:00.082Z, 4.1
2023-04-22T17:24:00.130Z, 4.1
2023-04-22T17:26:00.018Z, 9.1
2023-04-22T17:28:00.090Z, 9.1
2023-04-22T17:30:00.064Z, 3.5
2023-04-22T17:32:00.058Z, 3.5
2023-04-22T17:34:00.061Z, 3.5
2023-04-22T17:36:00.101Z, 4.8
2023-04-22T17:38:00.091Z, 4.8
2023-04-22T17:40:00.069Z, 4.8
2023-04-22T17:42:00.052Z, 4.8
2023-04-22T17:44:00.048Z, 4.8
2023-04-22T17:46:00.042Z, 2.3
2023-04-22T17:48:00.135Z, 2.3
2023-04-22T17:50:00.094Z, 3.6
2023-04-22T17:52:00.141Z, 3.6
2023-04-22T17:54:00.127Z, 3.6
2023-04-22T17:56:00.120Z, 2.6
2023-04-22T17:58:00.139Z, 2.6
2023-04-22T18:00:00.152Z, 4.2
2023-04-22T18:02:01.494Z, 4.2
2023-04-22T18:04:00.416Z, 4.2
2023-04-22T18:06:00.135Z, 4.2
2023-04-22T18:08:00.142Z, 4.2
2023-04-22T18:10:00.139Z, 4.2
2023-04-22T18:12:00.128Z, 4.2
2023-04-22T18:14:00.113Z, 4.2
2023-04-22T18:16:00.112Z, 4.2
2023-04-22T18:18:00.176Z, 4.2
2023-04-22T18:20:13.953Z, 4.2
2023-04-22T18:22:00.696Z, 4.2
2023-04-22T18:24:00.121Z, 4.2
2023-04-22T18:26:00.089Z, 4.2
2023-04-22T18:28:00.073Z, 4.2
2023-04-22T18:30:00.078Z, 4.2
2023-04-22T18:32:00.162Z, 4.2
2023-04-22T18:34:00.060Z, 4.2
2023-04-22T18:36:00.120Z, 4.2
2023-04-22T18:38:00.097Z, 4.2
2023-04-22T18:40:00.093Z, 4.2
2023-04-22T18:42:00.075Z, 4.2
2023-04-22T18:44:00.110Z, 4.2
2023-04-22T18:46:00.131Z, 4.2
2023-04-22T18:48:00.133Z, 4.2
2023-04-22T18:50:00.136Z, 4.2
2023-04-22T18:52:00.138Z, 4.2
2023-04-22T18:54:00.268Z, 4.2
2023-04-22T18:56:00.116Z, 4.2
2023-04-22T18:58:00.088Z, 4.2
2023-04-22T19:00:00.120Z, 2.4
2023-04-22T19:02:00.111Z, 2.4
2023-04-22T19:04:00.183Z, 4.4
2023-04-22T19:06:00.123Z, 4.4
2023-04-22T19:08:00.172Z, 4.4
2023-04-22T19:10:00.121Z, 3.4
2023-04-22T19:12:00.124Z, 3.4
2023-04-22T19:14:00.128Z, 5.8
2023-04-22T19:16:00.169Z, 5.8
2023-04-22T19:18:00.439Z, 5.8
2023-04-22T19:20:00.078Z, 4.5
2023-04-22T19:22:00.057Z, 4.5
2023-04-22T19:24:00.103Z, 3
2023-04-22T19:26:00.034Z, 3
2023-04-22T19:28:00.044Z, 3
2023-04-22T19:30:00.109Z, 2.6
2023-04-22T19:32:00.035Z, 2.6
2023-04-22T19:34:00.011Z, 2.6
2023-04-22T19:36:00.061Z, 5.3
2023-04-22T19:38:00.059Z, 5.3
2023-04-22T19:40:00.083Z, 3.1
2023-04-22T19:42:00.071Z, 3.1
2023-04-22T19:44:00.051Z, 3.4
2023-04-22T19:46:00.049Z, 3.4
2023-04-22T19:48:00.102Z, 3.4
2023-04-22T19:50:00.169Z, 4.5
2023-04-22T19:52:00.101Z, 4.5
2023-04-22T19:54:00.144Z, 3.2
2023-04-22T19:56:00.146Z, 3.2
2023-04-22T19:58:00.103Z, 3.2
2023-04-22T20:00:00.153Z, 5.2
2023-04-22T20:02:00.240Z, 5.2
2023-04-22T20:04:00.255Z, 3.2
2023-04-22T20:06:00.131Z, 3.2
2023-04-22T20:08:00.109Z, 3.2
2023-04-22T20:10:00.126Z, 3.8
2023-04-22T20:12:00.185Z, 3.8
2023-04-22T20:14:00.111Z, 2.1
2023-04-22T20:16:00.169Z, 2.1
2023-04-22T20:18:00.211Z, 2.1
2023-04-22T20:20:00.091Z, 2.8
2023-04-22T20:22:00.069Z, 2.8
2023-04-22T20:24:00.117Z, 2.7
2023-04-22T20:26:00.064Z, 2.7
2023-04-22T20:28:00.075Z, 2.7
2023-04-22T20:30:00.114Z, 2.7
2023-04-22T20:32:00.141Z, 2.7
2023-04-22T20:34:00.042Z, 2
2023-04-22T20:36:00.088Z, 2
2023-04-22T20:38:00.125Z, 2
2023-04-22T20:40:00.075Z, 2.7
2023-04-22T20:42:00.099Z, 2.7
2023-04-22T20:44:00.046Z, 3.2
2023-04-22T20:46:00.086Z, 3.2
2023-04-22T20:48:00.185Z, 3.2
2023-04-22T20:50:00.158Z, 4
2023-04-22T20:52:00.153Z, 4
2023-04-22T20:54:00.124Z, 3.6
2023-04-22T20:56:00.114Z, 3.6
2023-04-22T20:58:00.152Z, 3.6
2023-04-22T21:00:00.180Z, 3.4
2023-04-22T21:02:00.257Z, 3.4
2023-04-22T21:04:00.280Z, 3.2
2023-04-22T21:06:00.163Z, 3.2
2023-04-22T21:08:00.115Z, 3.2
2023-04-22T21:10:00.214Z, 2.5
2023-04-22T21:12:00.136Z, 2.5
2023-04-22T21:14:00.138Z, 3.6
2023-04-22T21:16:00.145Z, 3.6
2023-04-22T21:18:00.192Z, 3.6
2023-04-22T21:20:00.113Z, 3.3
2023-04-22T21:22:00.071Z, 3.3
2023-04-22T21:24:00.092Z, 3.9
2023-04-22T21:26:00.057Z, 3.9
2023-04-22T21:28:00.036Z, 3.9
2023-04-22T21:30:00.076Z, 4
2023-04-22T21:32:08.602Z, 4
2023-04-22T21:34:00.002Z, 2.9
2023-04-22T21:36:00.165Z, 2.9
2023-04-22T21:38:00.051Z, 2.9
2023-04-22T21:40:00.158Z, 3.8
2023-04-22T21:42:00.067Z, 3.8
2023-04-22T21:44:00.042Z, 3.6
2023-04-22T21:46:00.109Z, 3.6
2023-04-22T21:48:00.162Z, 3.6
2023-04-22T21:50:00.189Z, 4.4
2023-04-22T21:52:00.114Z, 4.4
2023-04-22T21:54:00.126Z, 4.7
2023-04-22T21:56:00.137Z, 4.7
2023-04-22T21:58:00.124Z, 4.7
2023-04-22T22:00:00.201Z, 5.1
2023-04-22T22:02:00.225Z, 5.1
2023-04-22T22:04:00.359Z, 4.9
2023-04-22T22:06:00.136Z, 4.9
2023-04-22T22:08:00.112Z, 4.9
2023-04-22T22:10:00.153Z, 3.9
2023-04-22T22:12:00.151Z, 3.9
2023-04-22T22:14:00.117Z, 3.8
2023-04-22T22:16:00.165Z, 3.8
2023-04-22T22:18:00.230Z, 4.2
2023-04-22T22:20:00.096Z, 4.7
2023-04-22T22:22:00.061Z, 4.7
2023-04-22T22:24:00.122Z, 5.6
2023-04-22T22:26:00.046Z, 5.6
2023-04-22T22:28:00.074Z, 5.1
2023-04-22T22:30:00.073Z, 5.1
2023-04-22T22:32:00.088Z, 5.1
2023-04-22T22:34:00.038Z, 4.8
2023-04-22T22:36:00.128Z, 4.8
2023-04-22T22:38:00.046Z, 4.8
2023-04-22T22:40:00.060Z, 5.7
2023-04-22T22:42:00.125Z, 5.7
2023-04-22T22:44:00.069Z, 7
2023-04-22T22:46:00.183Z, 7
2023-04-22T22:48:00.184Z, 6.9
2023-04-22T22:50:00.153Z, 6.9
2023-04-22T22:52:00.101Z, 6.9
2023-04-22T22:54:00.190Z, 7.5
2023-04-22T22:56:00.115Z, 7.5
2023-04-22T22:58:00.102Z, 6.1
2023-04-22T23:00:00.169Z, 6.1
2023-04-22T23:02:00.153Z, 6.1
2023-04-22T23:04:00.391Z, 6.2
2023-04-22T23:06:00.147Z, 6.2
2023-04-22T23:08:00.124Z, 7
2023-04-22T23:10:00.096Z, 7
2023-04-22T23:12:00.124Z, 7
2023-04-22T23:14:00.112Z, 7.1
2023-04-22T23:16:00.135Z, 7.1
2023-04-22T23:18:00.225Z, 6.7
2023-04-22T23:20:00.092Z, 6.7
2023-04-22T23:22:00.065Z, 6.7
2023-04-22T23:24:00.113Z, 5.9
2023-04-22T23:26:00.055Z, 5.9
2023-04-22T23:28:00.060Z, 8.1
2023-04-22T23:30:00.133Z, 8.1
2023-04-22T23:32:00.050Z, 8.1
2023-04-22T23:34:00.040Z, 6.2
2023-04-22T23:36:00.062Z, 6.2
2023-04-22T23:38:00.050Z, 6
2023-04-22T23:40:00.078Z, 6
2023-04-22T23:42:00.057Z, 6
2023-04-22T23:44:00.077Z, 6
2023-04-22T23:46:00.099Z, 6
2023-04-22T23:48:00.110Z, 5.5
2023-04-22T23:50:00.141Z, 5.5
2023-04-22T23:52:00.140Z, 5.5
2023-04-22T23:54:00.137Z, 6.7
2023-04-22T23:56:00.142Z, 6.7
2023-04-22T23:58:00.099Z, 6.8
